createdAt,value
2023-04-25T00:00:22.444Z,8.78
2023-04-25T00:02:51.526Z,8.66
2023-04-25T00:05:20.565Z,8.69
2023-04-25T00:07:48.386Z,8.75
2023-04-25T00:10:16.075Z,8.78
2023-04-25T00:12:43.830Z,8.77
2023-04-25T00:15:12.360Z,8.67
2023-04-25T00:17:40.361Z,8.65
2023-04-25T00:20:10.922Z,8.71
2023-04-25T00:22:39.135Z,8.67
2023-04-25T00:25:07.934Z,8.57
2023-04-25T00:27:35.532Z,8.67
2023-04-25T00:30:03.576Z,8.69
2023-04-25T00:32:31.263Z,8.60
2023-04-25T00:34:59.541Z,8.68
2023-04-25T00:37:28.750Z,8.72
2023-04-25T00:39:56.951Z,8.64
2023-04-25T00:42:24.695Z,8.70
2023-04-25T00:44:54.839Z,8.69
2023-04-25T00:47:23.539Z,8.40
2023-04-25T00:49:51.479Z,8.73
2023-04-25T00:52:19.223Z,8.82
2023-04-25T00:54:48.477Z,8.79
2023-04-25T00:57:16.434Z,8.79
2023-04-25T00:59:47.717Z,8.71
2023-04-25T01:02:15.805Z,8.62
2023-04-25T01:04:43.759Z,8.60
2023-04-25T01:07:11.916Z,8.65
2023-04-25T01:09:40.195Z,8.56
2023-04-25T01:12:09.493Z,8.59
2023-04-25T01:14:37.218Z,8.59
2023-04-25T01:17:08.637Z,8.66
2023-04-25T01:19:36.993Z,8.69
2023-04-25T01:22:06.410Z,8.65
2023-04-25T01:24:34.668Z,8.64
2023-04-25T01:27:03.258Z,8.56
2023-04-25T01:29:31.964Z,8.52
2023-04-25T01:32:00.967Z,8.55
2023-04-25T01:34:28.668Z,8.50
2023-04-25T01:37:01.592Z,8.51
2023-04-25T01:39:31.497Z,8.54
2023-04-25T01:42:00.073Z,8.58
2023-04-25T01:44:28.498Z,8.58
2023-04-25T01:46:56.515Z,8.62
2023-04-25T01:49:24.648Z,8.64
2023-04-25T01:51:52.542Z,8.59
2023-04-25T01:54:21.177Z,8.66
2023-04-25T01:56:53.683Z,8.60
2023-04-25T01:59:23.318Z,8.67
2023-04-25T02:02:09.497Z,8.66
2023-04-25T02:04:37.878Z,8.62
2023-04-25T02:07:05.860Z,8.62
2023-04-25T02:09:44.160Z,8.64
2023-04-25T02:12:14.630Z,8.66
2023-04-25T02:15:00.824Z,8.64
2023-04-25T02:17:49.784Z,8.70
2023-04-25T02:20:18.106Z,8.71
2023-04-25T02:22:45.762Z,8.73
2023-04-25T02:25:14.028Z,8.65
2023-04-25T02:27:43.739Z,8.65
2023-04-25T02:30:12.076Z,8.66
2023-04-25T02:32:40.567Z,8.60
2023-04-25T02:35:08.849Z,8.64
2023-04-25T02:37:40.869Z,8.60
2023-04-25T02:40:10.018Z,8.60
2023-04-25T02:42:38.255Z,8.43
2023-04-25T02:45:08.291Z,8.44
2023-04-25T02:47:36.064Z,8.49
2023-04-25T02:50:03.872Z,8.47
2023-04-25T02:52:31.889Z,8.55
2023-04-25T02:55:27.875Z,8.54
2023-04-25T02:57:57.233Z,8.58
2023-04-25T03:00:46.560Z,8.61
2023-04-25T03:03:14.723Z,8.64
2023-04-25T03:05:42.638Z,8.65
2023-04-25T03:08:10.631Z,8.62
2023-04-25T03:10:40.135Z,8.55
2023-04-25T03:13:10.544Z,8.57
2023-04-25T03:15:39.765Z,8.59
2023-04-25T03:18:08.872Z,8.54
2023-04-25T03:20:36.616Z,8.48
2023-04-25T03:23:05.183Z,8.52
2023-04-25T03:25:33.399Z,8.51
2023-04-25T03:28:01.100Z,8.48
2023-04-25T03:30:28.881Z,8.50
2023-04-25T03:32:56.650Z,8.45
2023-04-25T03:35:26.199Z,8.46
2023-04-25T03:37:54.314Z,8.53
2023-04-25T03:40:27.332Z,8.60
2023-04-25T03:43:09.019Z,8.52
2023-04-25T03:45:38.273Z,8.59
2023-04-25T03:48:06.417Z,8.60
2023-04-25T03:50:36.585Z,8.58
2023-04-25T03:53:04.500Z,8.58
2023-04-25T03:55:43.572Z,8.51
2023-04-25T03:58:11.511Z,8.53
2023-04-25T04:00:39.555Z,8.51
2023-04-25T04:03:07.710Z,8.49
2023-04-25T04:05:38.247Z,8.50
2023-04-25T04:08:06.224Z,8.49
2023-04-25T04:10:34.332Z,8.53
2023-04-25T04:13:02.047Z,8.51
2023-04-25T04:15:29.703Z,8.50
2023-04-25T04:17:57.601Z,8.55
2023-04-25T04:20:25.349Z,8.52
2023-04-25T04:22:54.999Z,8.53
2023-04-25T04:25:25.440Z,8.57
2023-04-25T04:28:26.270Z,8.58
2023-04-25T04:30:58.880Z,8.53
2023-04-25T04:33:27.553Z,8.54
2023-04-25T04:36:00.132Z,8.57
2023-04-25T04:38:30.970Z,8.59
2023-04-25T04:41:02.278Z,8.59
2023-04-25T04:43:54.238Z,8.64
2023-04-25T04:46:51.490Z,8.63
2023-04-25T04:49:48.912Z,8.64
2023-04-25T04:52:35.006Z,8.64
2023-04-25T04:55:12.402Z,8.65
2023-04-25T04:58:00.446Z,8.62
2023-04-25T05:00:49.482Z,8.64
2023-04-25T05:03:54.983Z,8.71
2023-04-25T05:06:53.302Z,8.73
2023-04-25T05:09:39.260Z,8.73
2023-04-25T05:12:26.853Z,8.74
2023-04-25T05:15:20.850Z,8.83
2023-04-25T05:18:07.331Z,8.87
2023-04-25T05:21:01.291Z,8.89
2023-04-25T05:23:48.818Z,8.90
2023-04-25T05:26:51.631Z,8.89
2023-04-25T05:29:42.614Z,8.86
2023-04-25T05:32:26.990Z,8.69
2023-04-25T05:34:55.074Z,8.83
2023-04-25T05:37:33.685Z,8.92
2023-04-25T05:40:11.175Z,9.01
2023-04-25T05:42:57.460Z,9.14
2023-04-25T05:45:49.446Z,9.15
2023-04-25T05:48:43.297Z,9.35
2023-04-25T05:51:22.402Z,9.33
2023-04-25T05:53:50.276Z,9.54
2023-04-25T05:56:18.228Z,9.72
2023-04-25T05:58:48.149Z,9.82
2023-04-25T06:01:17.242Z,9.83
2023-04-25T06:03:46.241Z,9.85
2023-04-25T06:06:14.105Z,9.59
2023-04-25T06:08:42.383Z,9.82
2023-04-25T06:11:12.662Z,9.79
2023-04-25T06:13:40.316Z,9.69
2023-04-25T06:16:08.820Z,9.72
2023-04-25T06:18:37.850Z,9.59
2023-04-25T06:21:06.068Z,9.82
2023-04-25T06:23:34.686Z,9.72
2023-04-25T06:26:08.362Z,9.81
2023-04-25T06:28:39.130Z,9.81
2023-04-25T06:31:06.894Z,9.51
2023-04-25T06:33:34.632Z,9.51
2023-04-25T06:36:05.790Z,9.49
2023-04-25T06:38:35.685Z,9.33
2023-04-25T06:41:03.684Z,9.30
2023-04-25T06:43:34.657Z,9.26
2023-04-25T06:46:12.171Z,9.41
2023-04-25T06:48:45.193Z,9.21
2023-04-25T06:51:15.049Z,9.29
2023-04-25T06:53:43.718Z,9.15
2023-04-25T06:56:23.103Z,9.40
2023-04-25T06:59:13.942Z,9.60
2023-04-25T07:01:42.597Z,9.64
2023-04-25T07:04:18.262Z,9.33
2023-04-25T07:06:52.395Z,9.58
2023-04-25T07:09:25.300Z,9.95
2023-04-25T07:11:53.566Z,10.06
2023-04-25T07:14:21.220Z,10.01
2023-04-25T07:16:50.540Z,10.24
2023-04-25T07:19:18.312Z,10.26
2023-04-25T07:21:46.386Z,10.18
2023-04-25T07:24:15.500Z,10.07
2023-04-25T07:26:47.119Z,10.11
2023-04-25T07:29:20.571Z,10.06
2023-04-25T07:31:48.234Z,10.01
2023-04-25T07:34:16.566Z,10.11
2023-04-25T07:36:46.073Z,9.90
2023-04-25T07:39:15.420Z,9.71
2023-04-25T07:41:43.370Z,9.84
2023-04-25T07:44:16.198Z,9.94
2023-04-25T07:46:44.272Z,10.05
2023-04-25T07:49:12.787Z,10.08
2023-04-25T07:51:44.186Z,10.06
2023-04-25T07:54:16.866Z,10.33
2023-04-25T07:56:53.412Z,10.59
2023-04-25T07:59:23.610Z,10.65
2023-04-25T08:01:51.466Z,10.63
2023-04-25T08:04:21.244Z,10.78
2023-04-25T08:06:56.345Z,10.85
2023-04-25T08:09:30.287Z,10.81
2023-04-25T08:11:58.589Z,11.10
2023-04-25T08:14:36.305Z,11.21
2023-04-25T08:17:05.290Z,11.44
2023-04-25T08:19:35.526Z,11.62
2023-04-25T08:22:04.486Z,11.42
2023-04-25T08:24:44.830Z,11.41
2023-04-25T08:27:13.336Z,11.93
2023-04-25T08:29:44.182Z,11.91
2023-04-25T08:32:13.008Z,11.63
2023-04-25T08:34:47.925Z,12.01
2023-04-25T08:37:15.974Z,11.90
2023-04-25T08:39:57.700Z,11.95
2023-04-25T08:42:52.468Z,11.62
2023-04-25T08:45:20.654Z,11.59
2023-04-25T08:47:50.625Z,11.48
2023-04-25T08:50:20.218Z,10.82
2023-04-25T08:52:50.454Z,11.02
2023-04-25T08:55:20.395Z,11.68
2023-04-25T08:57:50.224Z,11.84
2023-04-25T09:00:20.283Z,12.25
2023-04-25T09:02:49.364Z,12.48
2023-04-25T09:05:18.369Z,12.75
2023-04-25T09:07:48.560Z,12.74
2023-04-25T09:10:20.169Z,12.32
2023-04-25T09:13:04.493Z,12.44
2023-04-25T09:15:33.262Z,12.22
2023-04-25T09:18:13.352Z,12.36
2023-04-25T09:21:00.825Z,12.41
2023-04-25T09:23:33.881Z,12.58
2023-04-25T09:26:02.925Z,12.56
2023-04-25T09:28:31.073Z,12.81
2023-04-25T09:31:00.988Z,12.25
2023-04-25T09:33:37.212Z,12.43
2023-04-25T09:36:08.446Z,12.61
2023-04-25T09:39:01.770Z,12.75
2023-04-25T09:41:33.528Z,12.88
2023-04-25T09:44:03.971Z,13.15
2023-04-25T09:46:37.344Z,13.10
2023-04-25T09:49:08.790Z,13.19
2023-04-25T09:52:02.311Z,12.94
2023-04-25T09:54:36.370Z,12.91
2023-04-25T09:57:18.200Z,13.04
2023-04-25T09:59:47.712Z,12.92
2023-04-25T10:02:17.450Z,13.35
2023-04-25T10:04:49.358Z,13.86
2023-04-25T10:07:26.961Z,14.61
2023-04-25T10:10:00.591Z,15.05
2023-04-25T10:12:30.038Z,14.96
2023-04-25T10:14:59.639Z,14.22
2023-04-25T10:17:28.735Z,13.68
2023-04-25T10:19:57.334Z,13.24
2023-04-25T10:22:31.397Z,12.70
2023-04-25T10:25:00.223Z,12.61
2023-04-25T10:27:30.896Z,12.93
2023-04-25T10:30:06.185Z,13.29
2023-04-25T10:32:34.579Z,13.42
2023-04-25T10:35:13.269Z,13.48
2023-04-25T10:37:58.109Z,13.87
2023-04-25T10:40:26.177Z,13.71
2023-04-25T10:42:56.056Z,13.59
2023-04-25T10:45:24.209Z,13.38
2023-04-25T10:47:51.969Z,13.56
2023-04-25T10:50:19.665Z,13.35
2023-04-25T10:52:47.324Z,13.36
2023-04-25T10:55:15.003Z,13.15
2023-04-25T10:57:44.874Z,13.29
2023-04-25T11:00:16.996Z,12.98
2023-04-25T11:02:47.992Z,13.01
2023-04-25T11:05:25.818Z,12.79
2023-04-25T11:08:06.380Z,12.86
2023-04-25T11:10:36.469Z,12.94
2023-04-25T11:13:04.691Z,12.46
2023-04-25T11:15:33.790Z,12.46
2023-04-25T11:18:02.247Z,12.43
2023-04-25T11:20:30.585Z,12.38
2023-04-25T11:23:00.948Z,12.14
2023-04-25T11:25:28.739Z,12.19
2023-04-25T11:27:59.386Z,12.32
2023-04-25T11:30:29.668Z,12.37
2023-04-25T11:32:58.810Z,11.93
2023-04-25T11:35:27.196Z,12.24
2023-04-25T11:37:54.837Z,12.55
2023-04-25T11:40:22.745Z,13.00
2023-04-25T11:42:50.854Z,13.46
2023-04-25T11:45:20.773Z,13.40
2023-04-25T11:47:48.925Z,13.58
2023-04-25T11:50:17.885Z,14.16
2023-04-25T11:52:47.393Z,14.05
2023-04-25T11:55:17.092Z,14.37
2023-04-25T11:57:46.455Z,14.44
2023-04-25T12:00:18.672Z,14.49
2023-04-25T12:02:49.024Z,14.23
2023-04-25T12:07:50.052Z,13.48
2023-04-25T12:10:19.411Z,13.27
2023-04-25T12:12:48.838Z,13.09
2023-04-25T12:15:20.180Z,13.47
2023-04-25T12:17:49.187Z,13.49
2023-04-25T12:20:20.625Z,13.59
2023-04-25T12:22:49.999Z,14.18
2023-04-25T12:25:36.402Z,14.60
2023-04-25T12:28:14.378Z,14.66
2023-04-25T12:31:00.130Z,14.74
2023-04-25T12:33:29.456Z,14.73
2023-04-25T12:35:59.398Z,14.95
2023-04-25T12:38:28.807Z,15.37
2023-04-25T12:40:56.788Z,15.34
2023-04-25T12:43:24.494Z,15.20
2023-04-25T12:45:52.879Z,14.44
2023-04-25T12:48:21.430Z,14.56
2023-04-25T12:50:50.676Z,14.28
2023-04-25T12:53:20.405Z,14.64
2023-04-25T12:55:49.118Z,14.65
2023-04-25T12:58:18.285Z,14.70
2023-04-25T13:00:46.657Z,14.72
2023-04-25T13:03:14.511Z,14.33
2023-04-25T13:05:42.633Z,14.63
2023-04-25T13:08:10.277Z,14.88
2023-04-25T13:10:40.252Z,14.90
2023-04-25T13:13:08.184Z,15.24
2023-04-25T13:15:36.222Z,14.95
2023-04-25T13:18:04.952Z,15.46
2023-04-25T13:20:33.316Z,15.53
2023-04-25T13:23:02.731Z,15.53
2023-04-25T13:25:30.814Z,15.27
2023-04-25T13:27:59.792Z,15.48
2023-04-25T13:30:27.568Z,15.27
2023-04-25T13:32:57.265Z,15.61
2023-04-25T13:35:25.159Z,15.56
2023-04-25T13:37:52.829Z,15.61
2023-04-25T13:40:21.327Z,15.72
2023-04-25T13:42:50.163Z,15.79
2023-04-25T13:45:19.356Z,15.96
2023-04-25T13:47:47.196Z,15.23
2023-04-25T13:50:15.666Z,15.30
2023-04-25T13:52:43.488Z,15.15
2023-04-25T13:55:11.831Z,14.87
2023-04-25T13:57:41.284Z,14.80
2023-04-25T14:00:10.898Z,14.72
2023-04-25T14:02:40.578Z,14.49
2023-04-25T14:05:10.146Z,14.56
2023-04-25T14:07:38.396Z,14.12
2023-04-25T14:10:07.874Z,14.17
2023-04-25T14:12:36.065Z,13.83
2023-04-25T14:15:04.179Z,13.70
2023-04-25T14:17:31.930Z,13.47
2023-04-25T14:20:01.056Z,13.53
2023-04-25T14:22:28.685Z,13.46
2023-04-25T14:24:56.749Z,13.65
2023-04-25T14:27:24.950Z,13.83
2023-04-25T14:29:53.963Z,13.57
2023-04-25T14:32:22.037Z,13.47
2023-04-25T14:34:49.736Z,13.36
2023-04-25T14:37:18.764Z,13.24
2023-04-25T14:39:46.577Z,13.22
2023-04-25T14:42:14.252Z,13.26
2023-04-25T14:44:42.039Z,13.49
2023-04-25T14:47:10.361Z,13.51
2023-04-25T14:49:38.034Z,13.57
2023-04-25T14:52:06.069Z,13.89
2023-04-25T14:54:35.442Z,13.94
2023-04-25T14:57:03.303Z,13.61
2023-04-25T14:59:31.003Z,13.70
2023-04-25T15:01:59.877Z,13.22
2023-04-25T15:04:27.970Z,13.23
2023-04-25T15:06:56.384Z,13.35
2023-04-25T15:09:24.996Z,13.30
2023-04-25T15:11:54.199Z,12.77
2023-04-25T15:14:21.890Z,12.98
2023-04-25T15:16:49.644Z,13.06
2023-04-25T15:19:17.548Z,13.04
2023-04-25T15:21:45.200Z,12.91
2023-04-25T15:24:15.959Z,12.77
2023-04-25T15:26:43.640Z,12.90
2023-04-25T15:29:12.726Z,13.15
2023-04-25T15:31:40.490Z,13.21
2023-04-25T15:34:08.243Z,13.26
2023-04-25T15:36:35.992Z,13.13
2023-04-25T15:39:03.737Z,12.95
2023-04-25T15:41:31.402Z,13.14
2023-04-25T15:44:01.510Z,12.92
2023-04-25T15:46:31.956Z,13.07
2023-04-25T15:48:59.741Z,12.85
2023-04-25T15:51:28.084Z,12.90
2023-04-25T15:53:56.352Z,12.96
2023-04-25T15:56:24.510Z,13.07
2023-04-25T15:58:52.540Z,13.08
2023-04-25T16:01:24.084Z,12.80
2023-04-25T16:03:53.458Z,12.82
2023-04-25T16:06:22.220Z,13.04
2023-04-25T16:08:49.898Z,12.88
2023-04-25T16:11:17.627Z,12.87
2023-04-25T16:13:45.781Z,12.96
2023-04-25T16:16:13.579Z,12.93
2023-04-25T16:18:41.337Z,12.98
2023-04-25T16:21:11.605Z,12.92
2023-04-25T16:23:39.312Z,13.01
2023-04-25T16:26:08.758Z,13.04
2023-04-25T16:28:36.620Z,13.11
2023-04-25T16:31:04.361Z,12.48
2023-04-25T16:33:33.088Z,12.54
2023-04-25T16:36:00.766Z,12.55
2023-04-25T16:38:29.765Z,12.53
2023-04-25T16:40:57.447Z,12.44
2023-04-25T16:43:25.141Z,12.45
2023-04-25T16:45:53.103Z,12.38
2023-04-25T16:48:24.160Z,12.26
2023-04-25T16:50:52.733Z,12.33
2023-04-25T16:53:21.984Z,12.30
2023-04-25T16:55:51.348Z,12.26
2023-04-25T16:58:19.058Z,12.32
2023-04-25T17:00:47.245Z,12.25
2023-04-25T17:03:15.013Z,12.28
2023-04-25T17:05:42.785Z,12.09
2023-04-25T17:08:10.480Z,11.98
2023-04-25T17:10:38.207Z,11.86
2023-04-25T17:13:07.703Z,11.63
2023-04-25T17:15:35.903Z,11.70
2023-04-25T17:18:03.622Z,11.60
2023-04-25T17:20:31.429Z,11.70
2023-04-25T17:22:59.870Z,11.67
2023-04-25T17:25:27.856Z,11.47
2023-04-25T17:27:55.725Z,11.36
2023-04-25T17:30:24.778Z,11.10
2023-04-25T17:32:52.487Z,11.14
2023-04-25T17:35:20.290Z,10.97
2023-04-25T17:37:48.575Z,10.94
2023-04-25T17:40:16.212Z,10.94
2023-04-25T17:42:44.311Z,10.93
2023-04-25T17:45:12.940Z,10.84
2023-04-25T17:47:42.255Z,10.87
2023-04-25T17:50:10.414Z,10.82
2023-04-25T17:52:38.657Z,10.69
2023-04-25T17:55:07.672Z,10.61
2023-04-25T17:57:35.468Z,10.57
2023-04-25T18:00:05.798Z,10.53
2023-04-25T18:02:40.045Z,10.58
2023-04-25T18:05:10.713Z,10.54
2023-04-25T18:07:38.607Z,10.40
2023-04-25T18:10:07.422Z,10.41
2023-04-25T18:12:35.868Z,10.29
2023-04-25T18:15:06.724Z,10.12
2023-04-25T18:17:39.679Z,10.00
2023-04-25T18:20:15.647Z,9.87
2023-04-25T18:22:44.378Z,9.73
2023-04-25T18:25:13.641Z,9.74
2023-04-25T18:27:42.292Z,9.67
2023-04-25T18:30:12.165Z,9.65
2023-04-25T18:32:39.976Z,9.57
2023-04-25T18:35:11.325Z,9.50
2023-04-25T18:37:40.994Z,9.45
2023-04-25T18:40:13.759Z,9.40
2023-04-25T18:42:41.543Z,9.33
2023-04-25T18:45:10.262Z,9.35
2023-04-25T18:47:37.953Z,9.29
2023-04-25T18:50:06.891Z,9.27
2023-04-25T18:52:36.320Z,9.23
2023-04-25T18:55:04.736Z,9.23
2023-04-25T18:57:32.961Z,9.15
2023-04-25T19:00:05.089Z,9.10
2023-04-25T19:02:33.096Z,9.02
2023-04-25T19:05:01.370Z,8.92
2023-04-25T19:07:30.880Z,8.78
2023-04-25T19:10:00.346Z,8.69
2023-04-25T19:12:27.961Z,8.61
2023-04-25T19:14:56.151Z,8.47
2023-04-25T19:17:24.032Z,8.44
2023-04-25T19:19:51.735Z,8.26
2023-04-25T19:22:19.461Z,8.29
2023-04-25T19:24:50.566Z,8.25
2023-04-25T19:27:24.710Z,8.13
2023-04-25T19:29:58.072Z,8.11
2023-04-25T19:32:26.337Z,8.00
2023-04-25T19:34:54.214Z,8.00
2023-04-25T19:37:21.892Z,7.54
2023-04-25T19:39:49.541Z,7.86
2023-04-25T19:42:19.121Z,7.87
2023-04-25T19:44:48.481Z,7.85
2023-04-25T19:47:16.360Z,7.81
2023-04-25T19:49:44.035Z,7.93
2023-04-25T19:52:15.048Z,7.78
2023-04-25T19:54:42.921Z,7.68
2023-04-25T19:57:10.582Z,7.82
2023-04-25T19:59:38.450Z,7.76
2023-04-25T20:02:09.028Z,7.79
2023-04-25T20:04:37.012Z,7.72
2023-04-25T20:07:04.720Z,7.69
2023-04-25T20:09:32.758Z,7.62
2023-04-25T20:12:00.455Z,7.64
2023-04-25T20:14:28.164Z,7.68
2023-04-25T20:16:55.914Z,7.64
2023-04-25T20:19:24.952Z,7.69
2023-04-25T20:21:52.644Z,7.71
2023-04-25T20:24:20.325Z,7.72
2023-04-25T20:26:47.950Z,7.66
2023-04-25T20:29:15.596Z,7.65
2023-04-25T20:31:43.956Z,7.59
2023-04-25T20:34:11.694Z,7.57
2023-04-25T20:36:40.816Z,7.54
2023-04-25T20:39:08.512Z,7.54
2023-04-25T20:41:37.577Z,7.61
2023-04-25T20:44:07.459Z,7.61
2023-04-25T20:46:36.237Z,7.68
2023-04-25T20:49:05.320Z,7.68
2023-04-25T20:51:33.503Z,7.74
2023-04-25T20:54:03.754Z,7.76
2023-04-25T20:56:32.761Z,7.69
2023-04-25T20:59:00.703Z,7.64
2023-04-25T21:01:28.870Z,7.58
2023-04-25T21:03:56.674Z,7.60
2023-04-25T21:06:24.639Z,7.64
2023-04-25T21:08:52.875Z,7.51
2023-04-25T21:11:23.221Z,7.47
2023-04-25T21:13:51.674Z,7.54
2023-04-25T21:16:19.575Z,7.52
2023-04-25T21:18:47.911Z,7.56
2023-04-25T21:21:15.857Z,7.59
2023-04-25T21:23:43.542Z,7.59
2023-04-25T21:26:11.400Z,7.54
2023-04-25T21:28:40.389Z,7.46
2023-04-25T21:31:08.176Z,7.44
2023-04-25T21:33:35.975Z,7.33
2023-04-25T21:36:03.827Z,7.18
2023-04-25T21:38:31.593Z,7.11
2023-04-25T21:40:59.331Z,7.15
2023-04-25T21:43:26.977Z,7.20
2023-04-25T21:46:11.489Z,7.02
2023-04-25T21:48:42.844Z,6.91
2023-04-25T21:51:10.581Z,6.88
2023-04-25T21:53:38.232Z,6.89
2023-04-25T21:56:06.219Z,6.92
2023-04-25T21:58:33.969Z,6.90
2023-04-25T22:01:03.470Z,6.85
2023-04-25T22:03:31.350Z,6.88
2023-04-25T22:05:59.409Z,6.79
2023-04-25T22:08:27.048Z,6.86
2023-04-25T22:15:08.665Z,6.51
2023-04-25T22:17:38.714Z,6.34
2023-04-25T22:20:10.387Z,6.24
2023-04-25T22:22:38.017Z,6.21
2023-04-25T22:25:07.230Z,6.13
2023-04-25T22:27:35.076Z,6.08
2023-04-25T22:30:03.303Z,6.15
2023-04-25T22:32:31.430Z,6.07
2023-04-25T22:35:00.359Z,6.14
2023-04-25T22:37:28.748Z,6.09
2023-04-25T22:39:56.406Z,6.11
2023-04-25T22:42:24.123Z,6.18
2023-04-25T22:44:52.052Z,6.16
2023-04-25T22:47:21.577Z,6.23
2023-04-25T22:49:49.574Z,6.21
2023-04-25T22:52:18.536Z,6.13
2023-04-25T22:54:46.403Z,6.07
2023-04-25T22:57:14.168Z,6.07
2023-04-25T22:59:41.783Z,6.02
2023-04-25T23:02:09.403Z,5.96
2023-04-25T23:04:37.847Z,5.97
2023-04-25T23:07:05.992Z,5.95
2023-04-25T23:09:34.956Z,5.84
2023-04-25T23:12:02.552Z,5.72
2023-04-25T23:14:30.179Z,5.58
2023-04-25T23:16:57.776Z,5.52
2023-04-25T23:19:26.487Z,5.47
2023-04-25T23:21:54.080Z,5.36
2023-04-25T23:24:21.777Z,5.35
2023-04-25T23:26:50.782Z,5.22
2023-04-25T23:29:18.386Z,5.20
2023-04-25T23:31:46.026Z,5.14
2023-04-25T23:34:13.893Z,5.05
2023-04-25T23:36:41.706Z,5.07
2023-04-25T23:39:10.355Z,5.02
2023-04-25T23:41:37.924Z,4.89
2023-04-25T23:44:08.779Z,4.84
2023-04-25T23:46:36.674Z,4.76
2023-04-25T23:49:04.501Z,4.66
2023-04-25T23:51:32.326Z,4.62
2023-04-25T23:54:00.182Z,4.50
2023-04-25T23:56:27.827Z,4.38
2023-04-25T23:58:55.865Z,4.32
